sensor_id;sensor_type;location;lat;lon;timestamp;P1;durP1;ratioP1;P2;durP2;ratioP2
21705;SDS011;11014;53.076;18.208;2023-04-25T00:00:27;8.82;;;6.35;;
21705;SDS011;11014;53.076;18.208;2023-04-25T00:03:16;8.25;;;6.63;;
21705;SDS011;11014;53.076;18.208;2023-04-25T00:05:47;10.35;;;6.80;;
21705;SDS011;11014;53.076;18.208;2023-04-25T00:08:16;8.15;;;6.40;;
21705;SDS011;11014;53.076;18.208;2023-04-25T00:10:44;8.90;;;7.22;;
21705;SDS011;11014;53.076;18.208;2023-04-25T00:13:13;7.72;;;6.32;;
21705;SDS011;11014;53.076;18.208;2023-04-25T00:15:42;9.30;;;7.18;;
21705;SDS011;11014;53.076;18.208;2023-04-25T00:18:10;10.93;;;7.53;;
21705;SDS011;11014;53.076;18.208;2023-04-25T00:20:39;10.80;;;7.82;;
21705;SDS011;11014;53.076;18.208;2023-04-25T00:23:08;7.90;;;7.10;;
21705;SDS011;11014;53.076;18.208;2023-04-25T00:25:36;10.70;;;6.85;;
21705;SDS011;11014;53.076;18.208;2023-04-25T00:28:05;9.23;;;7.00;;
21705;SDS011;11014;53.076;18.208;2023-04-25T00:30:34;9.13;;;7.40;;
21705;SDS011;11014;53.076;18.208;2023-04-25T00:33:02;8.60;;;6.38;;
21705;SDS011;11014;53.076;18.208;2023-04-25T00:35:31;10.10;;;7.07;;
21705;SDS011;11014;53.076;18.208;2023-04-25T00:38:00;7.95;;;6.78;;
21705;SDS011;11014;53.076;18.208;2023-04-25T00:40:29;8.25;;;7.07;;
21705;SDS011;11014;53.076;18.208;2023-04-25T00:42:57;10.10;;;7.10;;
21705;SDS011;11014;53.076;18.208;2023-04-25T00:45:27;8.48;;;7.32;;
21705;SDS011;11014;53.076;18.208;2023-04-25T00:47:59;9.15;;;6.25;;
21705;SDS011;11014;53.076;18.208;2023-04-25T00:50:28;9.52;;;6.85;;
21705;SDS011;11014;53.076;18.208;2023-04-25T00:52:57;8.43;;;5.63;;
21705;SDS011;11014;53.076;18.208;2023-04-25T00:55:27;5.25;;;4.45;;
21705;SDS011;11014;53.076;18.208;2023-04-25T00:57:56;6.65;;;5.40;;
21705;SDS011;11014;53.076;18.208;2023-04-25T01:00:24;6.07;;;5.30;;
21705;SDS011;11014;53.076;18.208;2023-04-25T01:02:53;5.60;;;5.03;;
21705;SDS011;11014;53.076;18.208;2023-04-25T01:05:22;5.65;;;5.07;;
21705;SDS011;11014;53.076;18.208;2023-04-25T01:07:51;6.72;;;5.97;;
21705;SDS011;11014;53.076;18.208;2023-04-25T01:10:20;7.57;;;6.15;;
21705;SDS011;11014;53.076;18.208;2023-04-25T01:12:49;6.80;;;6.10;;
21705;SDS011;11014;53.076;18.208;2023-04-25T01:15:18;8.30;;;5.82;;
21705;SDS011;11014;53.076;18.208;2023-04-25T01:17:46;6.55;;;4.88;;
21705;SDS011;11014;53.076;18.208;2023-04-25T01:20:18;8.85;;;6.00;;
21705;SDS011;11014;53.076;18.208;2023-04-25T01:22:51;7.40;;;6.00;;
21705;SDS011;11014;53.076;18.208;2023-04-25T01:25:21;6.50;;;5.85;;
21705;SDS011;11014;53.076;18.208;2023-04-25T01:27:51;7.65;;;5.72;;
21705;SDS011;11014;53.076;18.208;2023-04-25T01:30:19;7.63;;;5.57;;
21705;SDS011;11014;53.076;18.208;2023-04-25T01:32:48;5.93;;;4.68;;
21705;SDS011;11014;53.076;18.208;2023-04-25T01:35:19;8.90;;;5.30;;
21705;SDS011;11014;53.076;18.208;2023-04-25T01:37:47;6.32;;;4.90;;
21705;SDS011;11014;53.076;18.208;2023-04-25T01:40:18;6.53;;;5.18;;
21705;SDS011;11014;53.076;18.208;2023-04-25T01:42:48;6.60;;;5.40;;
21705;SDS011;11014;53.076;18.208;2023-04-25T01:45:20;6.53;;;5.32;;
21705;SDS011;11014;53.076;18.208;2023-04-25T01:47:51;6.57;;;5.38;;
21705;SDS011;11014;53.076;18.208;2023-04-25T01:50:22;5.90;;;4.93;;
21705;SDS011;11014;53.076;18.208;2023-04-25T01:52:51;6.13;;;5.53;;
21705;SDS011;11014;53.076;18.208;2023-04-25T01:55:20;6.63;;;5.05;;
21705;SDS011;11014;53.076;18.208;2023-04-25T01:58:05;6.57;;;5.85;;
21705;SDS011;11014;53.076;18.208;2023-04-25T02:00:59;8.18;;;5.70;;
21705;SDS011;11014;53.076;18.208;2023-04-25T02:03:34;5.57;;;4.70;;
21705;SDS011;11014;53.076;18.208;2023-04-25T02:06:09;7.70;;;5.57;;
21705;SDS011;11014;53.076;18.208;2023-04-25T02:08:42;8.10;;;5.45;;
21705;SDS011;11014;53.076;18.208;2023-04-25T02:11:13;7.80;;;5.70;;
21705;SDS011;11014;53.076;18.208;2023-04-25T02:13:47;5.30;;;4.80;;
21705;SDS011;11014;53.076;18.208;2023-04-25T02:16:38;7.20;;;4.60;;
21705;SDS011;11014;53.076;18.208;2023-04-25T02:19:07;6.28;;;4.60;;
21705;SDS011;11014;53.076;18.208;2023-04-25T02:21:36;5.25;;;4.75;;
21705;SDS011;11014;53.076;18.208;2023-04-25T02:24:06;6.18;;;4.53;;
21705;SDS011;11014;53.076;18.208;2023-04-25T02:26:35;5.95;;;5.05;;
21705;SDS011;11014;53.076;18.208;2023-04-25T02:29:07;5.13;;;4.03;;
21705;SDS011;11014;53.076;18.208;2023-04-25T02:31:37;7.60;;;4.60;;
21705;SDS011;11014;53.076;18.208;2023-04-25T02:34:05;5.95;;;4.20;;
21705;SDS011;11014;53.076;18.208;2023-04-25T02:36:36;5.03;;;3.97;;
21705;SDS011;11014;53.076;18.208;2023-04-25T02:39:05;6.32;;;4.35;;
21705;SDS011;11014;53.076;18.208;2023-04-25T02:41:35;5.13;;;4.32;;
21705;SDS011;11014;53.076;18.208;2023-04-25T02:44:03;5.75;;;4.55;;
21705;SDS011;11014;53.076;18.208;2023-04-25T02:46:32;5.60;;;4.03;;
21705;SDS011;11014;53.076;18.208;2023-04-25T02:49:06;6.78;;;4.55;;
21705;SDS011;11014;53.076;18.208;2023-04-25T02:51:36;4.88;;;4.32;;
21705;SDS011;11014;53.076;18.208;2023-04-25T02:54:04;4.28;;;3.80;;
21705;SDS011;11014;53.076;18.208;2023-04-25T02:56:39;4.68;;;3.72;;
21705;SDS011;11014;53.076;18.208;2023-04-25T02:59:12;4.30;;;3.90;;
21705;SDS011;11014;53.076;18.208;2023-04-25T03:01:41;4.25;;;3.10;;
21705;SDS011;11014;53.076;18.208;2023-04-25T03:04:09;7.57;;;3.72;;
21705;SDS011;11014;53.076;18.208;2023-04-25T03:06:38;4.57;;;3.92;;
21705;SDS011;11014;53.076;18.208;2023-04-25T03:09:07;3.80;;;3.25;;
21705;SDS011;11014;53.076;18.208;2023-04-25T03:11:36;4.32;;;3.92;;
21705;SDS011;11014;53.076;18.208;2023-04-25T03:14:07;5.10;;;3.80;;
21705;SDS011;11014;53.076;18.208;2023-04-25T03:16:35;4.70;;;4.13;;
21705;SDS011;11014;53.076;18.208;2023-04-25T03:19:04;3.92;;;3.40;;
21705;SDS011;11014;53.076;18.208;2023-04-25T03:21:34;5.50;;;2.92;;
21705;SDS011;11014;53.076;18.208;2023-04-25T03:24:04;3.03;;;2.60;;
21705;SDS011;11014;53.076;18.208;2023-04-25T03:26:33;3.20;;;2.90;;
21705;SDS011;11014;53.076;18.208;2023-04-25T03:29:01;3.20;;;2.90;;
21705;SDS011;11014;53.076;18.208;2023-04-25T03:31:34;4.45;;;2.35;;
21705;SDS011;11014;53.076;18.208;2023-04-25T03:34:03;3.00;;;2.65;;
21705;SDS011;11014;53.076;18.208;2023-04-25T03:36:32;4.13;;;2.83;;
21705;SDS011;11014;53.076;18.208;2023-04-25T03:39:00;3.05;;;2.58;;
21705;SDS011;11014;53.076;18.208;2023-04-25T03:41:32;3.13;;;2.83;;
21705;SDS011;11014;53.076;18.208;2023-04-25T03:44:08;4.15;;;2.63;;
21705;SDS011;11014;53.076;18.208;2023-04-25T03:46:37;3.00;;;2.70;;
21705;SDS011;11014;53.076;18.208;2023-04-25T03:49:06;3.13;;;2.67;;
21705;SDS011;11014;53.076;18.208;2023-04-25T03:51:53;2.70;;;2.40;;
21705;SDS011;11014;53.076;18.208;2023-04-25T03:54:22;2.95;;;2.35;;
21705;SDS011;11014;53.076;18.208;2023-04-25T03:56:58;3.85;;;2.47;;
21705;SDS011;11014;53.076;18.208;2023-04-25T03:59:28;2.50;;;2.30;;
21705;SDS011;11014;53.076;18.208;2023-04-25T04:01:58;3.00;;;2.30;;
21705;SDS011;11014;53.076;18.208;2023-04-25T04:04:28;3.00;;;2.67;;
21705;SDS011;11014;53.076;18.208;2023-04-25T04:06:57;2.45;;;2.25;;
21705;SDS011;11014;53.076;18.208;2023-04-25T04:09:28;2.95;;;2.28;;
21705;SDS011;11014;53.076;18.208;2023-04-25T04:11:59;2.53;;;2.30;;
21705;SDS011;11014;53.076;18.208;2023-04-25T04:14:31;6.28;;;2.63;;
21705;SDS011;11014;53.076;18.208;2023-04-25T04:17:00;2.47;;;2.28;;
21705;SDS011;11014;53.076;18.208;2023-04-25T04:19:29;2.85;;;2.33;;
21705;SDS011;11014;53.076;18.208;2023-04-25T04:22:11;2.10;;;1.92;;
21705;SDS011;11014;53.076;18.208;2023-04-25T04:24:41;2.30;;;2.05;;
21705;SDS011;11014;53.076;18.208;2023-04-25T04:27:14;1.40;;;1.27;;
21705;SDS011;11014;53.076;18.208;2023-04-25T04:29:55;2.70;;;2.15;;
21705;SDS011;11014;53.076;18.208;2023-04-25T04:32:32;2.80;;;1.60;;
21705;SDS011;11014;53.076;18.208;2023-04-25T04:35:04;1.70;;;1.60;;
21705;SDS011;11014;53.076;18.208;2023-04-25T04:37:35;1.92;;;1.73;;
21705;SDS011;11014;53.076;18.208;2023-04-25T04:40:26;2.60;;;2.40;;
21705;SDS011;11014;53.076;18.208;2023-04-25T04:43:28;3.47;;;2.20;;
21705;SDS011;11014;53.076;18.208;2023-04-25T04:46:10;2.33;;;2.10;;
21705;SDS011;11014;53.076;18.208;2023-04-25T04:49:00;1.90;;;1.70;;
21705;SDS011;11014;53.076;18.208;2023-04-25T04:52:04;2.08;;;1.73;;
21705;SDS011;11014;53.076;18.208;2023-04-25T04:54:53;3.10;;;2.58;;
21705;SDS011;11014;53.076;18.208;2023-04-25T04:58:00;2.72;;;2.40;;
21705;SDS011;11014;53.076;18.208;2023-04-25T05:00:53;3.35;;;2.05;;
21705;SDS011;11014;53.076;18.208;2023-04-25T05:07:07;3.33;;;2.30;;
21705;SDS011;11014;53.076;18.208;2023-04-25T05:09:55;2.10;;;1.85;;
21705;SDS011;11014;53.076;18.208;2023-04-25T05:13:02;5.93;;;3.00;;
21705;SDS011;11014;53.076;18.208;2023-04-25T05:15:49;2.15;;;1.73;;
21705;SDS011;11014;53.076;18.208;2023-04-25T05:18:25;2.90;;;2.33;;
21705;SDS011;11014;53.076;18.208;2023-04-25T05:21:17;3.20;;;2.30;;
21705;SDS011;11014;53.076;18.208;2023-04-25T05:23:50;2.03;;;1.70;;
21705;SDS011;11014;53.076;18.208;2023-04-25T05:26:44;2.67;;;2.47;;
21705;SDS011;11014;53.076;18.208;2023-04-25T05:29:31;3.08;;;2.63;;
21705;SDS011;11014;53.076;18.208;2023-04-25T05:32:11;2.88;;;2.25;;
21705;SDS011;11014;53.076;18.208;2023-04-25T05:34:40;2.80;;;2.30;;
21705;SDS011;11014;53.076;18.208;2023-04-25T05:37:19;3.20;;;2.35;;
21705;SDS011;11014;53.076;18.208;2023-04-25T05:39:55;3.08;;;2.10;;
21705;SDS011;11014;53.076;18.208;2023-04-25T05:42:46;6.68;;;2.72;;
21705;SDS011;11014;53.076;18.208;2023-04-25T05:45:47;4.68;;;2.00;;
21705;SDS011;11014;53.076;18.208;2023-04-25T05:48:45;2.63;;;2.08;;
21705;SDS011;11014;53.076;18.208;2023-04-25T05:51:32;2.72;;;2.30;;
21705;SDS011;11014;53.076;18.208;2023-04-25T05:54:18;4.45;;;2.28;;
21705;SDS011;11014;53.076;18.208;2023-04-25T05:56:46;4.00;;;2.95;;
21705;SDS011;11014;53.076;18.208;2023-04-25T05:59:15;3.78;;;2.15;;
21705;SDS011;11014;53.076;18.208;2023-04-25T06:01:43;2.25;;;1.95;;
21705;SDS011;11014;53.076;18.208;2023-04-25T06:04:12;3.13;;;2.70;;
21705;SDS011;11014;53.076;18.208;2023-04-25T06:06:41;4.75;;;3.22;;
21705;SDS011;11014;53.076;18.208;2023-04-25T06:09:10;4.25;;;2.92;;
21705;SDS011;11014;53.076;18.208;2023-04-25T06:11:42;4.68;;;2.90;;
21705;SDS011;11014;53.076;18.208;2023-04-25T06:14:10;3.38;;;2.83;;
21705;SDS011;11014;53.076;18.208;2023-04-25T06:16:45;3.80;;;2.70;;
21705;SDS011;11014;53.076;18.208;2023-04-25T06:19:13;2.10;;;1.42;;
21705;SDS011;11014;53.076;18.208;2023-04-25T06:21:43;5.65;;;2.78;;
21705;SDS011;11014;53.076;18.208;2023-04-25T06:24:11;2.58;;;2.38;;
21705;SDS011;11014;53.076;18.208;2023-04-25T06:26:40;4.25;;;3.08;;
21705;SDS011;11014;53.076;18.208;2023-04-25T06:29:09;4.70;;;3.17;;
21705;SDS011;11014;53.076;18.208;2023-04-25T06:31:38;3.78;;;2.83;;
21705;SDS011;11014;53.076;18.208;2023-04-25T06:34:06;4.35;;;2.78;;
21705;SDS011;11014;53.076;18.208;2023-04-25T06:36:39;5.65;;;3.15;;
21705;SDS011;11014;53.076;18.208;2023-04-25T06:39:12;4.43;;;2.83;;
21705;SDS011;11014;53.076;18.208;2023-04-25T06:41:41;3.50;;;2.85;;
21705;SDS011;11014;53.076;18.208;2023-04-25T06:44:28;5.30;;;3.83;;
21705;SDS011;11014;53.076;18.208;2023-04-25T06:46:58;5.10;;;3.60;;
21705;SDS011;11014;53.076;18.208;2023-04-25T06:49:27;4.90;;;3.70;;
21705;SDS011;11014;53.076;18.208;2023-04-25T06:51:56;4.05;;;3.35;;
21705;SDS011;11014;53.076;18.208;2023-04-25T06:54:24;3.90;;;3.17;;
21705;SDS011;11014;53.076;18.208;2023-04-25T06:57:02;5.60;;;3.53;;
21705;SDS011;11014;53.076;18.208;2023-04-25T06:59:32;6.03;;;3.88;;
21705;SDS011;11014;53.076;18.208;2023-04-25T07:02:01;5.88;;;3.58;;
21705;SDS011;11014;53.076;18.208;2023-04-25T07:04:30;8.07;;;3.90;;
21705;SDS011;11014;53.076;18.208;2023-04-25T07:06:59;5.13;;;3.72;;
21705;SDS011;11014;53.076;18.208;2023-04-25T07:09:59;7.43;;;5.65;;
21705;SDS011;11014;53.076;18.208;2023-04-25T07:12:53;4.03;;;3.47;;
21705;SDS011;11014;53.076;18.208;2023-04-25T07:15:21;5.10;;;3.38;;
21705;SDS011;11014;53.076;18.208;2023-04-25T07:17:50;5.25;;;3.20;;
21705;SDS011;11014;53.076;18.208;2023-04-25T07:20:21;3.40;;;3.10;;
21705;SDS011;11014;53.076;18.208;2023-04-25T07:22:49;4.30;;;3.17;;
21705;SDS011;11014;53.076;18.208;2023-04-25T07:25:20;4.88;;;3.20;;
21705;SDS011;11014;53.076;18.208;2023-04-25T07:27:49;5.20;;;2.63;;
21705;SDS011;11014;53.076;18.208;2023-04-25T07:30:37;4.90;;;3.00;;
21705;SDS011;11014;53.076;18.208;2023-04-25T07:33:05;4.38;;;2.70;;
21705;SDS011;11014;53.076;18.208;2023-04-25T07:35:34;2.30;;;2.10;;
21705;SDS011;11014;53.076;18.208;2023-04-25T07:38:03;5.70;;;2.90;;
21705;SDS011;11014;53.076;18.208;2023-04-25T07:40:32;3.58;;;2.45;;
21705;SDS011;11014;53.076;18.208;2023-04-25T07:43:05;5.20;;;3.10;;
21705;SDS011;11014;53.076;18.208;2023-04-25T07:45:47;2.35;;;2.03;;
21705;SDS011;11014;53.076;18.208;2023-04-25T07:48:18;2.80;;;2.50;;
21705;SDS011;11014;53.076;18.208;2023-04-25T07:50:51;2.90;;;2.53;;
21705;SDS011;11014;53.076;18.208;2023-04-25T07:53:19;4.80;;;2.85;;
21705;SDS011;11014;53.076;18.208;2023-04-25T07:55:56;3.42;;;2.17;;
21705;SDS011;11014;53.076;18.208;2023-04-25T07:58:24;2.55;;;2.15;;
21705;SDS011;11014;53.076;18.208;2023-04-25T08:00:59;3.35;;;2.20;;
21705;SDS011;11014;53.076;18.208;2023-04-25T08:03:30;5.13;;;2.70;;
21705;SDS011;11014;53.076;18.208;2023-04-25T08:06:00;8.13;;;5.25;;
21705;SDS011;11014;53.076;18.208;2023-04-25T08:08:41;3.40;;;2.70;;
21705;SDS011;11014;53.076;18.208;2023-04-25T08:11:13;4.90;;;3.15;;
21705;SDS011;11014;53.076;18.208;2023-04-25T08:13:42;4.63;;;2.97;;
21705;SDS011;11014;53.076;18.208;2023-04-25T08:16:10;5.63;;;3.08;;
21705;SDS011;11014;53.076;18.208;2023-04-25T08:18:39;3.30;;;2.70;;
21705;SDS011;11014;53.076;18.208;2023-04-25T08:21:08;5.05;;;3.33;;
21705;SDS011;11014;53.076;18.208;2023-04-25T08:23:39;5.57;;;2.80;;
21705;SDS011;11014;53.076;18.208;2023-04-25T08:26:22;3.95;;;2.70;;
21705;SDS011;11014;53.076;18.208;2023-04-25T08:28:51;2.65;;;2.28;;
21705;SDS011;11014;53.076;18.208;2023-04-25T08:31:20;3.65;;;3.03;;
21705;SDS011;11014;53.076;18.208;2023-04-25T08:34:00;3.97;;;3.00;;
21705;SDS011;11014;53.076;18.208;2023-04-25T08:36:36;4.20;;;2.80;;
21705;SDS011;11014;53.076;18.208;2023-04-25T08:39:19;4.50;;;2.65;;
21705;SDS011;11014;53.076;18.208;2023-04-25T08:42:15;4.20;;;2.78;;
21705;SDS011;11014;53.076;18.208;2023-04-25T08:44:45;3.45;;;2.83;;
21705;SDS011;11014;53.076;18.208;2023-04-25T08:47:14;2.67;;;2.47;;
21705;SDS011;11014;53.076;18.208;2023-04-25T08:49:47;3.50;;;3.00;;
21705;SDS011;11014;53.076;18.208;2023-04-25T08:52:22;3.97;;;3.53;;
21705;SDS011;11014;53.076;18.208;2023-04-25T08:54:54;5.15;;;3.63;;
21705;SDS011;11014;53.076;18.208;2023-04-25T08:57:23;3.80;;;3.13;;
21705;SDS011;11014;53.076;18.208;2023-04-25T08:59:52;4.47;;;3.55;;
21705;SDS011;11014;53.076;18.208;2023-04-25T09:02:24;4.43;;;3.20;;
21705;SDS011;11014;53.076;18.208;2023-04-25T09:04:53;6.13;;;3.55;;
21705;SDS011;11014;53.076;18.208;2023-04-25T09:07:25;3.87;;;2.60;;
21705;SDS011;11014;53.076;18.208;2023-04-25T09:09:55;6.88;;;3.53;;
21705;SDS011;11014;53.076;18.208;2023-04-25T09:12:26;6.72;;;3.33;;
21705;SDS011;11014;53.076;18.208;2023-04-25T09:17:58;4.38;;;3.60;;
21705;SDS011;11014;53.076;18.208;2023-04-25T09:20:34;4.55;;;3.47;;
21705;SDS011;11014;53.076;18.208;2023-04-25T09:23:28;4.18;;;3.33;;
21705;SDS011;11014;53.076;18.208;2023-04-25T09:25:59;5.03;;;3.15;;
21705;SDS011;11014;53.076;18.208;2023-04-25T09:28:29;5.03;;;2.80;;
21705;SDS011;11014;53.076;18.208;2023-04-25T09:33:58;4.45;;;2.50;;
21705;SDS011;11014;53.076;18.208;2023-04-25T09:36:35;4.75;;;2.40;;
21705;SDS011;11014;53.076;18.208;2023-04-25T09:39:24;3.47;;;2.05;;
21705;SDS011;11014;53.076;18.208;2023-04-25T09:42:09;3.05;;;2.30;;
21705;SDS011;11014;53.076;18.208;2023-04-25T09:44:41;3.08;;;2.20;;
21705;SDS011;11014;53.076;18.208;2023-04-25T09:47:15;4.10;;;2.95;;
21705;SDS011;11014;53.076;18.208;2023-04-25T09:52:19;5.53;;;2.47;;
21705;SDS011;11014;53.076;18.208;2023-04-25T09:55:08;4.15;;;2.08;;
21705;SDS011;11014;53.076;18.208;2023-04-25T09:57:36;5.93;;;2.75;;
21705;SDS011;11014;53.076;18.208;2023-04-25T10:00:10;5.03;;;2.42;;
21705;SDS011;11014;53.076;18.208;2023-04-25T10:02:43;2.75;;;2.15;;
21705;SDS011;11014;53.076;18.208;2023-04-25T10:05:34;3.00;;;2.38;;
21705;SDS011;11014;53.076;18.208;2023-04-25T10:08:04;2.92;;;2.20;;
21705;SDS011;11014;53.076;18.208;2023-04-25T10:10:34;3.67;;;2.45;;
21705;SDS011;11014;53.076;18.208;2023-04-25T10:13:06;3.92;;;2.58;;
21705;SDS011;11014;53.076;18.208;2023-04-25T10:15:36;3.42;;;2.50;;
21705;SDS011;11014;53.076;18.208;2023-04-25T10:18:07;3.58;;;3.00;;
21705;SDS011;11014;53.076;18.208;2023-04-25T10:20:36;3.05;;;2.75;;
21705;SDS011;11014;53.076;18.208;2023-04-25T10:23:12;4.53;;;2.70;;
21705;SDS011;11014;53.076;18.208;2023-04-25T10:26:03;4.13;;;2.67;;
21705;SDS011;11014;53.076;18.208;2023-04-25T10:28:54;5.32;;;3.30;;
21705;SDS011;11014;53.076;18.208;2023-04-25T10:31:28;3.95;;;2.90;;
21705;SDS011;11014;53.076;18.208;2023-04-25T10:34:00;3.92;;;2.97;;
21705;SDS011;11014;53.076;18.208;2023-04-25T10:36:33;2.75;;;2.47;;
21705;SDS011;11014;53.076;18.208;2023-04-25T10:39:03;3.65;;;2.40;;
21705;SDS011;11014;53.076;18.208;2023-04-25T10:41:47;3.88;;;2.25;;
21705;SDS011;11014;53.076;18.208;2023-04-25T10:44:20;4.20;;;2.40;;
21705;SDS011;11014;53.076;18.208;2023-04-25T10:46:49;4.22;;;2.28;;
21705;SDS011;11014;53.076;18.208;2023-04-25T10:49:37;4.65;;;2.60;;
21705;SDS011;11014;53.076;18.208;2023-04-25T10:52:13;3.33;;;2.53;;
21705;SDS011;11014;53.076;18.208;2023-04-25T10:54:56;3.40;;;2.05;;
21705;SDS011;11014;53.076;18.208;2023-04-25T10:57:47;4.20;;;2.58;;
21705;SDS011;11014;53.076;18.208;2023-04-25T11:00:18;3.75;;;3.00;;
21705;SDS011;11014;53.076;18.208;2023-04-25T11:03:01;4.72;;;2.88;;
21705;SDS011;11014;53.076;18.208;2023-04-25T11:05:34;3.50;;;2.75;;
21705;SDS011;11014;53.076;18.208;2023-04-25T11:08:25;2.60;;;2.40;;
21705;SDS011;11014;53.076;18.208;2023-04-25T11:11:06;2.40;;;1.92;;
21705;SDS011;11014;53.076;18.208;2023-04-25T11:13:37;2.90;;;2.03;;
21705;SDS011;11014;53.076;18.208;2023-04-25T11:16:09;2.20;;;1.73;;
21705;SDS011;11014;53.076;18.208;2023-04-25T11:18:58;14.93;;;2.35;;
21705;SDS011;11014;53.076;18.208;2023-04-25T11:21:28;3.50;;;2.30;;
21705;SDS011;11014;53.076;18.208;2023-04-25T11:24:00;2.90;;;2.47;;
21705;SDS011;11014;53.076;18.208;2023-04-25T11:26:29;4.07;;;2.22;;
21705;SDS011;11014;53.076;18.208;2023-04-25T11:28:59;4.45;;;2.67;;
21705;SDS011;11014;53.076;18.208;2023-04-25T11:31:28;3.13;;;2.80;;
21705;SDS011;11014;53.076;18.208;2023-04-25T11:33:58;5.88;;;3.53;;
21705;SDS011;11014;53.076;18.208;2023-04-25T11:36:27;11.63;;;3.58;;
21705;SDS011;11014;53.076;18.208;2023-04-25T11:39:00;12.93;;;3.55;;
21705;SDS011;11014;53.076;18.208;2023-04-25T11:41:30;7.40;;;5.10;;
21705;SDS011;11014;53.076;18.208;2023-04-25T11:44:00;5.35;;;3.35;;
21705;SDS011;11014;53.076;18.208;2023-04-25T11:46:29;6.38;;;3.50;;
21705;SDS011;11014;53.076;18.208;2023-04-25T11:48:59;5.53;;;3.80;;
21705;SDS011;11014;53.076;18.208;2023-04-25T11:51:28;3.50;;;3.13;;
21705;SDS011;11014;53.076;18.208;2023-04-25T11:53:59;4.25;;;3.75;;
21705;SDS011;11014;53.076;18.208;2023-04-25T11:56:28;5.95;;;3.83;;
21705;SDS011;11014;53.076;18.208;2023-04-25T11:58:59;5.43;;;3.95;;
21705;SDS011;11014;53.076;18.208;2023-04-25T12:01:30;4.47;;;3.70;;
21705;SDS011;11014;53.076;18.208;2023-04-25T12:04:16;4.93;;;3.63;;
21705;SDS011;11014;53.076;18.208;2023-04-25T12:06:49;6.30;;;3.85;;
21705;SDS011;11014;53.076;18.208;2023-04-25T12:09:21;4.82;;;3.60;;
21705;SDS011;11014;53.076;18.208;2023-04-25T12:11:57;5.63;;;3.60;;
21705;SDS011;11014;53.076;18.208;2023-04-25T12:14:36;5.30;;;3.80;;
21705;SDS011;11014;53.076;18.208;2023-04-25T12:17:05;3.00;;;2.70;;
21705;SDS011;11014;53.076;18.208;2023-04-25T12:19:37;3.65;;;2.30;;
21705;SDS011;11014;53.076;18.208;2023-04-25T12:22:19;5.75;;;2.55;;
21705;SDS011;11014;53.076;18.208;2023-04-25T12:24:53;3.30;;;2.33;;
21705;SDS011;11014;53.076;18.208;2023-04-25T12:27:23;4.60;;;2.38;;
21705;SDS011;11014;53.076;18.208;2023-04-25T12:29:55;4.88;;;2.70;;
21705;SDS011;11014;53.076;18.208;2023-04-25T12:32:24;3.53;;;2.60;;
21705;SDS011;11014;53.076;18.208;2023-04-25T12:34:54;6.80;;;3.00;;
21705;SDS011;11014;53.076;18.208;2023-04-25T12:40:41;4.97;;;2.75;;
21705;SDS011;11014;53.076;18.208;2023-04-25T12:43:11;4.00;;;2.72;;
21705;SDS011;11014;53.076;18.208;2023-04-25T12:45:40;3.53;;;3.05;;
21705;SDS011;11014;53.076;18.208;2023-04-25T12:48:09;4.40;;;3.35;;
21705;SDS011;11014;53.076;18.208;2023-04-25T12:50:40;4.82;;;2.95;;
21705;SDS011;11014;53.076;18.208;2023-04-25T12:53:09;6.50;;;3.50;;
21705;SDS011;11014;53.076;18.208;2023-04-25T12:55:40;3.10;;;2.72;;
21705;SDS011;11014;53.076;18.208;2023-04-25T12:58:09;4.75;;;2.50;;
21705;SDS011;11014;53.076;18.208;2023-04-25T13:00:39;2.78;;;2.25;;
21705;SDS011;11014;53.076;18.208;2023-04-25T13:03:08;4.07;;;2.38;;
21705;SDS011;11014;53.076;18.208;2023-04-25T13:05:39;2.53;;;2.10;;
21705;SDS011;11014;53.076;18.208;2023-04-25T13:08:09;2.80;;;2.45;;
21705;SDS011;11014;53.076;18.208;2023-04-25T13:10:39;3.15;;;2.55;;
21705;SDS011;11014;53.076;18.208;2023-04-25T13:13:09;4.70;;;2.30;;
21705;SDS011;11014;53.076;18.208;2023-04-25T13:15:39;16.10;;;7.03;;
21705;SDS011;11014;53.076;18.208;2023-04-25T13:18:08;4.68;;;2.90;;
21705;SDS011;11014;53.076;18.208;2023-04-25T13:20:37;4.18;;;3.05;;
21705;SDS011;11014;53.076;18.208;2023-04-25T13:23:08;4.60;;;2.33;;
21705;SDS011;11014;53.076;18.208;2023-04-25T13:25:37;4.70;;;2.65;;
21705;SDS011;11014;53.076;18.208;2023-04-25T13:28:08;4.53;;;2.88;;
21705;SDS011;11014;53.076;18.208;2023-04-25T13:30:37;3.65;;;2.70;;
21705;SDS011;11014;53.076;18.208;2023-04-25T13:33:08;3.20;;;2.78;;
21705;SDS011;11014;53.076;18.208;2023-04-25T13:35:38;5.75;;;2.50;;
21705;SDS011;11014;53.076;18.208;2023-04-25T13:38:08;4.47;;;2.45;;
21705;SDS011;11014;53.076;18.208;2023-04-25T13:40:39;4.07;;;2.90;;
21705;SDS011;11014;53.076;18.208;2023-04-25T13:43:10;4.50;;;2.50;;
21705;SDS011;11014;53.076;18.208;2023-04-25T13:45:41;6.18;;;3.20;;
21705;SDS011;11014;53.076;18.208;2023-04-25T13:48:14;4.38;;;3.28;;
21705;SDS011;11014;53.076;18.208;2023-04-25T13:50:46;6.20;;;3.50;;
21705;SDS011;11014;53.076;18.208;2023-04-25T13:53:18;3.85;;;2.92;;
21705;SDS011;11014;53.076;18.208;2023-04-25T13:55:49;4.55;;;3.10;;
21705;SDS011;11014;53.076;18.208;2023-04-25T13:58:19;5.95;;;3.63;;
21705;SDS011;11014;53.076;18.208;2023-04-25T14:00:50;6.93;;;4.03;;
21705;SDS011;11014;53.076;18.208;2023-04-25T14:03:20;6.20;;;3.55;;
21705;SDS011;11014;53.076;18.208;2023-04-25T14:05:49;7.35;;;3.78;;
21705;SDS011;11014;53.076;18.208;2023-04-25T14:08:18;7.13;;;3.85;;
21705;SDS011;11014;53.076;18.208;2023-04-25T14:10:47;5.53;;;3.60;;
21705;SDS011;11014;53.076;18.208;2023-04-25T14:13:17;6.03;;;3.30;;
21705;SDS011;11014;53.076;18.208;2023-04-25T14:15:55;7.00;;;3.75;;
21705;SDS011;11014;53.076;18.208;2023-04-25T14:18:23;6.30;;;3.88;;
21705;SDS011;11014;53.076;18.208;2023-04-25T14:20:54;3.95;;;3.55;;
21705;SDS011;11014;53.076;18.208;2023-04-25T14:23:32;5.43;;;3.58;;
21705;SDS011;11014;53.076;18.208;2023-04-25T14:26:04;6.07;;;3.45;;
21705;SDS011;11014;53.076;18.208;2023-04-25T14:28:33;7.63;;;3.70;;
21705;SDS011;11014;53.076;18.208;2023-04-25T14:31:02;4.70;;;3.15;;
21705;SDS011;11014;53.076;18.208;2023-04-25T14:33:31;5.75;;;3.38;;
21705;SDS011;11014;53.076;18.208;2023-04-25T14:36:04;4.78;;;3.00;;
21705;SDS011;11014;53.076;18.208;2023-04-25T14:38:35;18.73;;;9.85;;
21705;SDS011;11014;53.076;18.208;2023-04-25T14:41:10;68.72;;;25.23;;
21705;SDS011;11014;53.076;18.208;2023-04-25T14:43:41;5.90;;;4.10;;
21705;SDS011;11014;53.076;18.208;2023-04-25T14:46:14;6.55;;;3.58;;
21705;SDS011;11014;53.076;18.208;2023-04-25T14:48:42;3.70;;;2.42;;
21705;SDS011;11014;53.076;18.208;2023-04-25T14:57:34;3.67;;;1.80;;
21705;SDS011;11014;53.076;18.208;2023-04-25T15:00:03;3.70;;;1.70;;
21705;SDS011;11014;53.076;18.208;2023-04-25T15:03:10;4.18;;;2.47;;
21705;SDS011;11014;53.076;18.208;2023-04-25T15:06:11;3.35;;;1.90;;
21705;SDS011;11014;53.076;18.208;2023-04-25T15:08:41;4.30;;;1.77;;
21705;SDS011;11014;53.076;18.208;2023-04-25T15:11:10;3.80;;;2.15;;
21705;SDS011;11014;53.076;18.208;2023-04-25T15:13:39;5.15;;;2.50;;
21705;SDS011;11014;53.076;18.208;2023-04-25T15:16:08;4.40;;;2.85;;
21705;SDS011;11014;53.076;18.208;2023-04-25T15:18:39;6.25;;;2.28;;
21705;SDS011;11014;53.076;18.208;2023-04-25T15:21:08;3.30;;;2.53;;
21705;SDS011;11014;53.076;18.208;2023-04-25T15:23:39;3.20;;;2.20;;
21705;SDS011;11014;53.076;18.208;2023-04-25T15:26:08;4.07;;;2.42;;
21705;SDS011;11014;53.076;18.208;2023-04-25T15:28:37;6.25;;;2.38;;
21705;SDS011;11014;53.076;18.208;2023-04-25T15:31:06;4.13;;;2.70;;